Atkins, IA (52206)

3:34 AM CDT on August 26, 2016 (GMT -0500)
Ridgeview Estates | | Change Station

Elev 860 ft 41.99 °N, 91.85 °W | Updated 1 minute ago

Clear
Clear
59.9 °F
Feels Like 59.9 °F
N
0.0
Wind Variable Wind from NNW

Today
High -- | Low -- °F
--% Chance of Precip.
Yesterday
High -- | Low -- °F
Precip. -- in
Pressure 30.12 in
Visibility 10.0 miles
Clouds Clear
Dew Point 57 °F
Humidity 91%
Rainfall 0.00 in
Snow Depth Not available.
6:27 AM 7:50 PM
Last Quarter, 37% visible
METAR KCID 260752Z AUTO 34003KT 10SM CLR 16/16 A3013 RMK AO2 SLP200 T01610161
Pressure 30.12 in
Visibility 10.0 miles
Clouds Clear
Dew Point 57 °F
Humidity 91%
Rainfall 0.00 in
Snow Depth Not available.
6:27 AM 7:50 PM
Last Quarter, 37% visible
METAR KCID 260752Z AUTO 34003KT 10SM CLR 16/16 A3013 RMK AO2 SLP200 T01610161

10-Day Weather Forecast

Almanac

Astronomy

Aug. 26, 2016 Rise Set
Actual Time
Civil Twilight
Nautical Twilight
Astronomical Twilight
Moon
Length of Visible Light
Length of Day
Tomorrow will be .
, % of the Moon is Illuminated

Today's Extremes

State Highs State Lows

Community

WunderPhotos

Upload Photos

1,935,062 photos uploaded!

WunderBlog® & News

Nearby

Air Quality

  Air Quality AQ Index Pollutant
Not available.

Snow Depth

Station Depth Elevation

Earthquake Activity

City Distance Mag. Time & Date
Minimum magnitude displayed is 2.5.

Coastal Water Temperatures

Place Temperature

Stations

Nearby Weather Stations

Station Location Temp. Windchill Dew Point Humidity Wind Precip. Elev Updated Type
                   

Watches & Warnings

There are currently no watches in effect.